sensor_id;sensor_type;location;lat;lon;timestamp;pressure;altitude;pressure_sealevel;temperature;humidity
77062;BME280;65989;51.686;5.138;2023-01-24T00:02:05;103958.16;;;1.99;83.42
77062;BME280;65989;51.686;5.138;2023-01-24T00:04:30;103961.56;;;2.00;83.28
77062;BME280;65989;51.686;5.138;2023-01-24T00:06:56;103960.03;;;1.97;83.52
77062;BME280;65989;51.686;5.138;2023-01-24T00:09:21;103955.03;;;1.94;83.23
77062;BME280;65989;51.686;5.138;2023-01-24T00:11:47;103961.94;;;1.95;83.05
77062;BME280;65989;51.686;5.138;2023-01-24T00:14:12;103965.63;;;1.92;83.04
77062;BME280;65989;51.686;5.138;2023-01-24T00:16:37;103962.78;;;1.96;83.22
77062;BME280;65989;51.686;5.138;2023-01-24T00:19:03;103960.28;;;1.94;83.41
77062;BME280;65989;51.686;5.138;2023-01-24T00:21:28;103955.91;;;1.94;83.21
77062;BME280;65989;51.686;5.138;2023-01-24T00:23:54;103948.28;;;1.91;83.26
77062;BME280;65989;51.686;5.138;2023-01-24T00:26:21;103953.50;;;1.91;83.08
77062;BME280;65989;51.686;5.138;2023-01-24T00:28:48;103957.78;;;1.92;83.16
77062;BME280;65989;51.686;5.138;2023-01-24T00:31:15;103952.66;;;1.91;83.68
77062;BME280;65989;51.686;5.138;2023-01-24T00:33:40;103956.00;;;1.93;83.20
77062;BME280;65989;51.686;5.138;2023-01-24T00:36:06;103945.66;;;1.91;83.06
77062;BME280;65989;51.686;5.138;2023-01-24T00:38:32;103954.56;;;1.89;83.21
77062;BME280;65989;51.686;5.138;2023-01-24T00:40:58;103956.34;;;1.88;83.25
77062;BME280;65989;51.686;5.138;2023-01-24T00:43:23;103964.06;;;1.90;83.48
77062;BME280;65989;51.686;5.138;2023-01-24T00:45:51;103953.38;;;1.93;83.16
77062;BME280;65989;51.686;5.138;2023-01-24T00:48:18;103949.09;;;1.92;83.18
77062;BME280;65989;51.686;5.138;2023-01-24T00:50:44;103944.00;;;1.90;83.24
77062;BME280;65989;51.686;5.138;2023-01-24T00:53:09;103941.38;;;1.90;83.11
77062;BME280;65989;51.686;5.138;2023-01-24T00:55:43;103939.72;;;1.89;83.33
77062;BME280;65989;51.686;5.138;2023-01-24T00:58:09;103933.41;;;1.92;83.12
77062;BME280;65989;51.686;5.138;2023-01-24T01:00:35;103940.91;;;1.85;83.08
77062;BME280;65989;51.686;5.138;2023-01-24T01:03:02;103929.72;;;1.83;83.11
77062;BME280;65989;51.686;5.138;2023-01-24T01:05:28;103931.38;;;1.84;83.40
77062;BME280;65989;51.686;5.138;2023-01-24T01:07:53;103931.25;;;1.86;83.52
77062;BME280;65989;51.686;5.138;2023-01-24T01:10:18;103927.81;;;1.85;83.37
77062;BME280;65989;51.686;5.138;2023-01-24T01:12:44;103932.34;;;1.83;83.42
77062;BME280;65989;51.686;5.138;2023-01-24T01:15:10;103932.34;;;1.83;83.14
77062;BME280;65989;51.686;5.138;2023-01-24T01:17:35;103936.63;;;1.84;83.22
77062;BME280;65989;51.686;5.138;2023-01-24T01:20:01;103931.63;;;1.81;83.33
77062;BME280;65989;51.686;5.138;2023-01-24T01:22:27;103917.72;;;1.81;83.10
77062;BME280;65989;51.686;5.138;2023-01-24T01:24:53;103932.72;;;1.78;83.33
77062;BME280;65989;51.686;5.138;2023-01-24T01:27:18;103932.81;;;1.77;83.27
77062;BME280;65989;51.686;5.138;2023-01-24T01:29:43;103935.41;;;1.77;83.51
77062;BME280;65989;51.686;5.138;2023-01-24T01:32:09;103936.25;;;1.77;83.04
77062;BME280;65989;51.686;5.138;2023-01-24T01:34:34;103924.72;;;1.80;83.14
77062;BME280;65989;51.686;5.138;2023-01-24T01:37:00;103931.75;;;1.79;83.26
77062;BME280;65989;51.686;5.138;2023-01-24T01:39:25;103931.84;;;1.78;83.10
77062;BME280;65989;51.686;5.138;2023-01-24T01:41:51;103928.53;;;1.76;83.00
77062;BME280;65989;51.686;5.138;2023-01-24T01:44:21;103921.63;;;1.75;82.90
77062;BME280;65989;51.686;5.138;2023-01-24T01:47:16;103929.69;;;1.72;82.99
77062;BME280;65989;51.686;5.138;2023-01-24T01:52:41;103927.22;;;1.70;82.92
77062;BME280;65989;51.686;5.138;2023-01-24T01:55:21;103932.31;;;1.72;82.97
77062;BME280;65989;51.686;5.138;2023-01-24T01:57:49;103918.28;;;1.73;83.10
77062;BME280;65989;51.686;5.138;2023-01-24T02:00:23;103914.16;;;1.70;82.85
77062;BME280;65989;51.686;5.138;2023-01-24T02:02:59;103912.59;;;1.68;82.94
77062;BME280;65989;51.686;5.138;2023-01-24T02:05:50;103913.31;;;1.70;83.13
77062;BME280;65989;51.686;5.138;2023-01-24T02:08:20;103909.75;;;1.71;83.18
77062;BME280;65989;51.686;5.138;2023-01-24T02:10:48;103908.19;;;1.68;83.40
77062;BME280;65989;51.686;5.138;2023-01-24T02:13:33;103916.28;;;1.65;83.07
77062;BME280;65989;51.686;5.138;2023-01-24T02:16:00;103908.44;;;1.65;83.06
77062;BME280;65989;51.686;5.138;2023-01-24T02:18:32;103908.56;;;1.63;83.08
77062;BME280;65989;51.686;5.138;2023-01-24T02:20:59;103901.66;;;1.62;83.35
77062;BME280;65989;51.686;5.138;2023-01-24T02:26:09;103907.72;;;1.63;83.31
77062;BME280;65989;51.686;5.138;2023-01-24T02:28:35;103904.28;;;1.62;83.40
77062;BME280;65989;51.686;5.138;2023-01-24T02:31:02;103913.88;;;1.62;83.53
77062;BME280;65989;51.686;5.138;2023-01-24T02:33:28;103912.84;;;1.64;83.43
77062;BME280;65989;51.686;5.138;2023-01-24T02:36:18;103919.03;;;1.63;83.27
77062;BME280;65989;51.686;5.138;2023-01-24T02:38:49;103917.94;;;1.66;83.35
77062;BME280;65989;51.686;5.138;2023-01-24T02:41:16;103912.25;;;1.72;83.09
77062;BME280;65989;51.686;5.138;2023-01-24T02:43:46;103914.88;;;1.72;83.37
77062;BME280;65989;51.686;5.138;2023-01-24T02:46:12;103909.88;;;1.69;83.05
77062;BME280;65989;51.686;5.138;2023-01-24T02:48:38;103915.09;;;1.69;83.40
77062;BME280;65989;51.686;5.138;2023-01-24T02:51:03;103919.59;;;1.67;83.07
77062;BME280;65989;51.686;5.138;2023-01-24T02:53:47;103922.09;;;1.69;83.31
77062;BME280;65989;51.686;5.138;2023-01-24T02:56:12;103913.44;;;1.68;83.36
77062;BME280;65989;51.686;5.138;2023-01-24T02:58:56;103913.66;;;1.65;83.19
77062;BME280;65989;51.686;5.138;2023-01-24T03:01:22;103913.53;;;1.67;83.02
77062;BME280;65989;51.686;5.138;2023-01-24T03:03:49;103915.31;;;1.66;83.35
77062;BME280;65989;51.686;5.138;2023-01-24T03:06:16;103920.44;;;1.68;83.40
77062;BME280;65989;51.686;5.138;2023-01-24T03:08:42;103911.16;;;1.75;83.22
77062;BME280;65989;51.686;5.138;2023-01-24T03:11:09;103915.91;;;1.70;83.08
77062;BME280;65989;51.686;5.138;2023-01-24T03:13:35;103915.09;;;1.69;83.29
77062;BME280;65989;51.686;5.138;2023-01-24T03:16:19;103918.53;;;1.70;83.09
77062;BME280;65989;51.686;5.138;2023-01-24T03:19:03;103906.88;;;1.74;83.19
77062;BME280;65989;51.686;5.138;2023-01-24T03:21:47;103911.53;;;1.70;83.07
77062;BME280;65989;51.686;5.138;2023-01-24T03:24:31;103916.16;;;1.67;83.15
77062;BME280;65989;51.686;5.138;2023-01-24T03:27:15;103914.38;;;1.67;83.09
77062;BME280;65989;51.686;5.138;2023-01-24T03:30:00;103905.94;;;1.63;82.96
77062;BME280;65989;51.686;5.138;2023-01-24T03:32:44;103898.44;;;1.59;82.99
77062;BME280;65989;51.686;5.138;2023-01-24T03:35:28;103896.91;;;1.56;82.94
77062;BME280;65989;51.686;5.138;2023-01-24T03:37:54;103899.53;;;1.56;82.84
77062;BME280;65989;51.686;5.138;2023-01-24T03:40:38;103901.28;;;1.56;83.20
77062;BME280;65989;51.686;5.138;2023-01-24T03:43:04;103893.44;;;1.56;82.96
77062;BME280;65989;51.686;5.138;2023-01-24T03:45:32;103895.25;;;1.55;83.62
77062;BME280;65989;51.686;5.138;2023-01-24T03:48:01;103892.63;;;1.55;83.20
77062;BME280;65989;51.686;5.138;2023-01-24T03:50:29;103896.91;;;1.56;83.28
77062;BME280;65989;51.686;5.138;2023-01-24T03:53:15;103903.66;;;1.59;83.34
77062;BME280;65989;51.686;5.138;2023-01-24T03:55:41;103906.91;;;1.62;83.36
77062;BME280;65989;51.686;5.138;2023-01-24T03:58:08;103900.94;;;1.60;83.71
77062;BME280;65989;51.686;5.138;2023-01-24T04:00:34;103904.50;;;1.59;83.56
77062;BME280;65989;51.686;5.138;2023-01-24T04:03:00;103895.81;;;1.59;83.51
77062;BME280;65989;51.686;5.138;2023-01-24T04:05:26;103903.78;;;1.57;83.43
77062;BME280;65989;51.686;5.138;2023-01-24T04:07:53;103903.78;;;1.57;83.64
77062;BME280;65989;51.686;5.138;2023-01-24T04:10:18;103898.56;;;1.57;83.40
77062;BME280;65989;51.686;5.138;2023-01-24T04:12:44;103900.25;;;1.58;83.79
77062;BME280;65989;51.686;5.138;2023-01-24T04:15:19;103901.28;;;1.56;83.88
77062;BME280;65989;51.686;5.138;2023-01-24T04:17:45;103898.44;;;1.59;83.76
77062;BME280;65989;51.686;5.138;2023-01-24T04:20:11;103895.81;;;1.59;83.78
77062;BME280;65989;51.686;5.138;2023-01-24T04:22:37;103907.94;;;1.60;84.11
77062;BME280;65989;51.686;5.138;2023-01-24T04:25:03;103903.91;;;1.56;83.82
77062;BME280;65989;51.686;5.138;2023-01-24T04:27:28;103903.91;;;1.56;83.91
77062;BME280;65989;51.686;5.138;2023-01-24T04:29:53;103906.66;;;1.54;83.85
77062;BME280;65989;51.686;5.138;2023-01-24T04:32:19;103906.97;;;1.49;83.67
77062;BME280;65989;51.686;5.138;2023-01-24T04:34:44;103911.38;;;1.49;84.01
77062;BME280;65989;51.686;5.138;2023-01-24T04:37:10;103911.25;;;1.51;83.85
77062;BME280;65989;51.686;5.138;2023-01-24T04:39:35;103921.00;;;1.48;84.02
77062;BME280;65989;51.686;5.138;2023-01-24T04:42:01;103905.34;;;1.48;83.89
77062;BME280;65989;51.686;5.138;2023-01-24T04:44:26;103908.03;;;1.47;84.07
77062;BME280;65989;51.686;5.138;2023-01-24T04:46:52;103903.78;;;1.46;84.00
77062;BME280;65989;51.686;5.138;2023-01-24T04:49:17;103912.47;;;1.46;84.05
77062;BME280;65989;51.686;5.138;2023-01-24T04:51:43;103906.28;;;1.47;83.89
77062;BME280;65989;51.686;5.138;2023-01-24T04:54:11;103908.03;;;1.47;84.02
77062;BME280;65989;51.686;5.138;2023-01-24T04:56:37;103908.03;;;1.47;84.12
77062;BME280;65989;51.686;5.138;2023-01-24T04:59:03;103907.09;;;1.48;84.13
77062;BME280;65989;51.686;5.138;2023-01-24T05:01:28;103911.16;;;1.52;84.10
77062;BME280;65989;51.686;5.138;2023-01-24T05:03:53;103913.19;;;1.48;84.55
77062;BME280;65989;51.686;5.138;2023-01-24T05:06:28;103916.16;;;1.55;84.30
77062;BME280;65989;51.686;5.138;2023-01-24T05:08:54;103921.25;;;1.45;84.24
77062;BME280;65989;51.686;5.138;2023-01-24T05:11:20;103917.06;;;1.43;84.13
77062;BME280;65989;51.686;5.138;2023-01-24T05:13:46;103927.50;;;1.43;84.44
77062;BME280;65989;51.686;5.138;2023-01-24T05:16:12;103916.34;;;1.41;84.16
77062;BME280;65989;51.686;5.138;2023-01-24T05:18:37;103919.69;;;1.43;84.23
77062;BME280;65989;51.686;5.138;2023-01-24T05:21:07;103918.13;;;1.40;84.40
77062;BME280;65989;51.686;5.138;2023-01-24T05:23:33;103929.63;;;1.38;84.22
77062;BME280;65989;51.686;5.138;2023-01-24T05:25:59;103925.47;;;1.35;84.27
77062;BME280;65989;51.686;5.138;2023-01-24T05:28:25;103924.75;;;1.33;84.58
77062;BME280;65989;51.686;5.138;2023-01-24T05:30:50;103924.03;;;1.31;84.57
77062;BME280;65989;51.686;5.138;2023-01-24T05:33:16;103924.91;;;1.31;84.63
77062;BME280;65989;51.686;5.138;2023-01-24T05:35:41;103932.47;;;1.34;84.52
77062;BME280;65989;51.686;5.138;2023-01-24T05:38:08;103942.09;;;1.34;84.74
77062;BME280;65989;51.686;5.138;2023-01-24T05:40:34;103939.38;;;1.36;84.60
77062;BME280;65989;51.686;5.138;2023-01-24T05:42:59;103943.06;;;1.33;84.58
77062;BME280;65989;51.686;5.138;2023-01-24T05:45:24;103949.34;;;1.30;84.41
77062;BME280;65989;51.686;5.138;2023-01-24T05:47:50;103947.91;;;1.26;84.48
77062;BME280;65989;51.686;5.138;2023-01-24T05:50:15;103943.63;;;1.25;84.33
77062;BME280;65989;51.686;5.138;2023-01-24T05:52:40;103951.56;;;1.24;84.40
77062;BME280;65989;51.686;5.138;2023-01-24T05:55:06;103937.91;;;1.20;84.39
77062;BME280;65989;51.686;5.138;2023-01-24T05:57:32;103953.59;;;1.20;84.44
77062;BME280;65989;51.686;5.138;2023-01-24T05:59:59;103944.78;;;1.21;84.59
77062;BME280;65989;51.686;5.138;2023-01-24T06:02:24;103942.78;;;1.25;84.67
77062;BME280;65989;51.686;5.138;2023-01-24T06:04:49;103950.75;;;1.23;84.87
77062;BME280;65989;51.686;5.138;2023-01-24T06:07:15;103958.44;;;1.25;84.73
77062;BME280;65989;51.686;5.138;2023-01-24T06:09:40;103961.06;;;1.25;84.60
77062;BME280;65989;51.686;5.138;2023-01-24T06:12:05;103961.19;;;1.23;84.76
77062;BME280;65989;51.686;5.138;2023-01-24T06:14:31;103963.91;;;1.22;84.52
77062;BME280;65989;51.686;5.138;2023-01-24T06:16:56;103965.91;;;1.18;84.48
77062;BME280;65989;51.686;5.138;2023-01-24T06:19:22;103973.75;;;1.18;84.77
77062;BME280;65989;51.686;5.138;2023-01-24T06:21:53;103965.19;;;1.16;84.57
77062;BME280;65989;51.686;5.138;2023-01-24T06:24:25;103969.25;;;1.20;84.45
77062;BME280;65989;51.686;5.138;2023-01-24T06:26:51;103977.66;;;1.12;84.54
77062;BME280;65989;51.686;5.138;2023-01-24T06:29:18;103967.94;;;1.14;84.70
77062;BME280;65989;51.686;5.138;2023-01-24T06:32:03;103979.31;;;1.13;84.77
77062;BME280;65989;51.686;5.138;2023-01-24T06:37:42;103977.88;;;1.09;84.95
77062;BME280;65989;51.686;5.138;2023-01-24T06:40:11;103972.66;;;1.09;84.63
77062;BME280;65989;51.686;5.138;2023-01-24T06:42:37;103972.22;;;1.15;84.74
77062;BME280;65989;51.686;5.138;2023-01-24T06:45:03;103972.22;;;1.15;84.98
77062;BME280;65989;51.686;5.138;2023-01-24T06:47:29;103971.72;;;1.10;85.03
77062;BME280;65989;51.686;5.138;2023-01-24T06:49:54;103980.38;;;1.11;84.67
77062;BME280;65989;51.686;5.138;2023-01-24T06:52:20;103969.09;;;1.10;84.90
77062;BME280;65989;51.686;5.138;2023-01-24T06:54:45;103971.22;;;1.05;84.80
77062;BME280;65989;51.686;5.138;2023-01-24T06:57:11;103976.44;;;1.05;84.78
77062;BME280;65989;51.686;5.138;2023-01-24T06:59:36;103980.81;;;1.04;84.92
77062;BME280;65989;51.686;5.138;2023-01-24T07:02:02;103980.59;;;1.08;84.79
77062;BME280;65989;51.686;5.138;2023-01-24T07:04:27;103979.63;;;1.09;85.02
77062;BME280;65989;51.686;5.138;2023-01-24T07:06:53;103978.91;;;1.07;85.11
77062;BME280;65989;51.686;5.138;2023-01-24T07:09:19;103983.53;;;1.03;84.77
77062;BME280;65989;51.686;5.138;2023-01-24T07:11:45;103988.84;;;1.01;84.86
77062;BME280;65989;51.686;5.138;2023-01-24T07:14:14;103998.34;;;1.02;85.08
77062;BME280;65989;51.686;5.138;2023-01-24T07:16:40;103993.13;;;1.02;84.86
77062;BME280;65989;51.686;5.138;2023-01-24T07:19:05;104001.91;;;1.01;84.91
77062;BME280;65989;51.686;5.138;2023-01-24T07:21:34;104006.53;;;0.98;85.08
77062;BME280;65989;51.686;5.138;2023-01-24T07:24:04;104003.94;;;0.98;85.00
77062;BME280;65989;51.686;5.138;2023-01-24T07:26:35;104013.31;;;1.00;84.95
77062;BME280;65989;51.686;5.138;2023-01-24T07:29:00;104004.78;;;0.98;84.96
77062;BME280;65989;51.686;5.138;2023-01-24T07:31:25;104009.75;;;1.01;85.22
77062;BME280;65989;51.686;5.138;2023-01-24T07:33:51;104004.53;;;1.01;84.88
77062;BME280;65989;51.686;5.138;2023-01-24T07:36:16;104006.44;;;0.99;84.93
77062;BME280;65989;51.686;5.138;2023-01-24T07:38:42;104014.50;;;0.96;85.17
77062;BME280;65989;51.686;5.138;2023-01-24T07:41:08;104023.88;;;0.99;84.91
77062;BME280;65989;51.686;5.138;2023-01-24T07:43:34;104028.38;;;0.97;84.88
77062;BME280;65989;51.686;5.138;2023-01-24T07:46:00;104022.41;;;0.95;85.25
77062;BME280;65989;51.686;5.138;2023-01-24T07:48:26;104018.88;;;0.96;84.81
77062;BME280;65989;51.686;5.138;2023-01-24T07:50:51;104018.88;;;0.96;85.24
77062;BME280;65989;51.686;5.138;2023-01-24T07:53:16;104027.44;;;0.98;85.12
77062;BME280;65989;51.686;5.138;2023-01-24T07:55:42;104030.25;;;0.95;84.89
77062;BME280;65989;51.686;5.138;2023-01-24T07:58:07;104026.59;;;0.97;85.26
77062;BME280;65989;51.686;5.138;2023-01-24T08:00:33;104018.66;;;0.99;84.94
77062;BME280;65989;51.686;5.138;2023-01-24T08:02:58;104027.34;;;0.99;85.39
77062;BME280;65989;51.686;5.138;2023-01-24T08:05:23;104028.75;;;1.03;85.44
77062;BME280;65989;51.686;5.138;2023-01-24T08:07:49;104034.81;;;1.04;85.41
77062;BME280;65989;51.686;5.138;2023-01-24T08:10:14;104026.88;;;1.06;85.13
77062;BME280;65989;51.686;5.138;2023-01-24T08:12:40;104026.06;;;1.05;85.44
77062;BME280;65989;51.686;5.138;2023-01-24T08:15:06;104023.66;;;1.02;85.09
77062;BME280;65989;51.686;5.138;2023-01-24T08:17:32;104030.03;;;0.98;85.07
77062;BME280;65989;51.686;5.138;2023-01-24T08:19:59;104036.81;;;1.00;85.02
77062;BME280;65989;51.686;5.138;2023-01-24T08:22:25;104035.16;;;0.99;84.79
77062;BME280;65989;51.686;5.138;2023-01-24T08:24:50;104038.47;;;1.01;85.13
77062;BME280;65989;51.686;5.138;2023-01-24T08:27:15;104040.88;;;1.04;85.20
77062;BME280;65989;51.686;5.138;2023-01-24T08:29:41;104028.88;;;1.02;84.74
77062;BME280;65989;51.686;5.138;2023-01-24T08:32:06;104040.66;;;1.08;84.80
77062;BME280;65989;51.686;5.138;2023-01-24T08:34:32;104040.88;;;1.04;85.20
77062;BME280;65989;51.686;5.138;2023-01-24T08:36:57;104038.25;;;1.04;84.91
77062;BME280;65989;51.686;5.138;2023-01-24T08:39:22;104050.16;;;1.09;84.95
77062;BME280;65989;51.686;5.138;2023-01-24T08:41:48;104047.53;;;1.09;85.03
77062;BME280;65989;51.686;5.138;2023-01-24T08:44:13;104045.88;;;1.08;85.12
77062;BME280;65989;51.686;5.138;2023-01-24T08:46:39;104052.56;;;1.12;84.96
77062;BME280;65989;51.686;5.138;2023-01-24T08:49:05;104051.81;;;1.10;85.16
77062;BME280;65989;51.686;5.138;2023-01-24T08:51:30;104057.91;;;1.10;85.05
77062;BME280;65989;51.686;5.138;2023-01-24T08:53:56;104057.78;;;1.12;84.84
77062;BME280;65989;51.686;5.138;2023-01-24T08:56:21;104058.41;;;1.15;85.12
77062;BME280;65989;51.686;5.138;2023-01-24T08:58:46;104062.66;;;1.16;84.92
77062;BME280;65989;51.686;5.138;2023-01-24T09:01:12;104066.00;;;1.18;85.05
77062;BME280;65989;51.686;5.138;2023-01-24T09:03:37;104057.94;;;1.22;85.06
77062;BME280;65989;51.686;5.138;2023-01-24T09:06:04;104068.72;;;1.17;84.96
77062;BME280;65989;51.686;5.138;2023-01-24T09:08:29;104069.56;;;1.17;84.93
77062;BME280;65989;51.686;5.138;2023-01-24T09:10:59;104066.13;;;1.17;84.95
77062;BME280;65989;51.686;5.138;2023-01-24T09:13:25;104065.69;;;1.23;84.98
77062;BME280;65989;51.686;5.138;2023-01-24T09:15:50;104062.84;;;1.26;85.10
77062;BME280;65989;51.686;5.138;2023-01-24T09:18:16;104067.13;;;1.27;84.98
77062;BME280;65989;51.686;5.138;2023-01-24T09:20:42;104067.66;;;1.32;84.89
77062;BME280;65989;51.686;5.138;2023-01-24T09:23:12;104070.94;;;1.34;85.01
77062;BME280;65989;51.686;5.138;2023-01-24T09:25:39;104070.72;;;1.38;84.93
77062;BME280;65989;51.686;5.138;2023-01-24T09:28:05;104073.47;;;1.36;84.98
77062;BME280;65989;51.686;5.138;2023-01-24T09:30:31;104070.72;;;1.38;84.87
77062;BME280;65989;51.686;5.138;2023-01-24T09:32:56;104069.69;;;1.40;84.69
77062;BME280;65989;51.686;5.138;2023-01-24T09:35:21;104067.31;;;1.37;84.61
77062;BME280;65989;51.686;5.138;2023-01-24T09:37:47;104077.53;;;1.40;84.85
77062;BME280;65989;51.686;5.138;2023-01-24T09:40:25;104078.47;;;1.39;84.75
77062;BME280;65989;51.686;5.138;2023-01-24T09:43:13;104085.59;;;1.37;84.55
77062;BME280;65989;51.686;5.138;2023-01-24T09:45:49;104091.53;;;1.39;84.51
77062;BME280;65989;51.686;5.138;2023-01-24T09:48:16;104085.59;;;1.37;84.42
77062;BME280;65989;51.686;5.138;2023-01-24T09:50:56;104083.94;;;1.36;84.34
77062;BME280;65989;51.686;5.138;2023-01-24T09:53:29;104101.28;;;1.37;84.19
77062;BME280;65989;51.686;5.138;2023-01-24T09:55:58;104081.09;;;1.39;84.25
77062;BME280;65989;51.686;5.138;2023-01-24T09:58:31;104089.88;;;1.38;84.17
77062;BME280;65989;51.686;5.138;2023-01-24T10:01:16;104090.25;;;1.45;84.32
77062;BME280;65989;51.686;5.138;2023-01-24T10:03:42;104089.66;;;1.41;84.11
77062;BME280;65989;51.686;5.138;2023-01-24T10:06:13;104099.03;;;1.44;83.95
77062;BME280;65989;51.686;5.138;2023-01-24T10:09:13;104099.38;;;1.39;84.17
77062;BME280;65989;51.686;5.138;2023-01-24T10:12:00;104100.09;;;1.41;83.87
77062;BME280;65989;51.686;5.138;2023-01-24T10:20:49;104099.97;;;1.43;83.72
77062;BME280;65989;51.686;5.138;2023-01-24T10:25:55;104099.97;;;1.43;83.69
77062;BME280;65989;51.686;5.138;2023-01-24T10:28:28;104092.38;;;1.40;83.72
77062;BME280;65989;51.686;5.138;2023-01-24T10:31:04;104090.47;;;1.42;83.68
77062;BME280;65989;51.686;5.138;2023-01-24T10:33:35;104091.09;;;1.45;83.91
77062;BME280;65989;51.686;5.138;2023-01-24T10:36:19;104093.97;;;1.54;83.74
77062;BME280;65989;51.686;5.138;2023-01-24T10:38:47;104096.00;;;1.50;83.70
77062;BME280;65989;51.686;5.138;2023-01-24T10:43:44;104094.53;;;1.46;83.22
77062;BME280;65989;51.686;5.138;2023-01-24T10:46:29;104089.69;;;1.53;83.59
77062;BME280;65989;51.686;5.138;2023-01-24T10:48:58;104089.91;;;1.49;83.36
77062;BME280;65989;51.686;5.138;2023-01-24T10:51:25;104083.66;;;1.52;83.38
77062;BME280;65989;51.686;5.138;2023-01-24T10:53:55;104084.03;;;1.59;83.44
77062;BME280;65989;51.686;5.138;2023-01-24T10:56:25;104089.88;;;1.62;83.22
77062;BME280;65989;51.686;5.138;2023-01-24T10:58:58;104103.78;;;1.63;83.29
77062;BME280;65989;51.686;5.138;2023-01-24T11:01:38;104088.59;;;1.68;83.22
77062;BME280;65989;51.686;5.138;2023-01-24T11:04:20;104087.50;;;1.59;83.26
77062;BME280;65989;51.686;5.138;2023-01-24T11:06:48;104090.31;;;1.56;83.00
77062;BME280;65989;51.686;5.138;2023-01-24T11:09:16;104079.75;;;1.58;82.75
77062;BME280;65989;51.686;5.138;2023-01-24T11:11:50;104083.31;;;1.57;82.75
77062;BME280;65989;51.686;5.138;2023-01-24T11:14:20;104080.47;;;1.60;82.67
77062;BME280;65989;51.686;5.138;2023-01-24T11:16:48;104077.03;;;1.59;82.59
77062;BME280;65989;51.686;5.138;2023-01-24T11:19:35;104073.56;;;1.59;82.78
77062;BME280;65989;51.686;5.138;2023-01-24T11:22:24;104064.56;;;1.63;82.71
77062;BME280;65989;51.686;5.138;2023-01-24T11:24:56;104068.13;;;1.62;82.78
77062;BME280;65989;51.686;5.138;2023-01-24T11:27:22;104060.91;;;1.66;82.67
77062;BME280;65989;51.686;5.138;2023-01-24T11:30:13;104053.06;;;1.77;82.81
77062;BME280;65989;51.686;5.138;2023-01-24T11:33:09;104059.03;;;1.79;82.77
77062;BME280;65989;51.686;5.138;2023-01-24T11:35:52;104054.66;;;1.79;82.56
77062;BME280;65989;51.686;5.138;2023-01-24T11:46:41;104041.00;;;1.87;82.41
77062;BME280;65989;51.686;5.138;2023-01-24T12:05:33;104030.41;;;1.89;81.90
77062;BME280;65989;51.686;5.138;2023-01-24T12:11:05;104027.69;;;1.90;81.77
77062;BME280;65989;51.686;5.138;2023-01-24T12:21:54;104009.16;;;1.93;81.53
77062;BME280;65989;51.686;5.138;2023-01-24T12:24:32;104010.69;;;1.96;81.29
77062;BME280;65989;51.686;5.138;2023-01-24T12:27:02;104002.84;;;1.96;81.35
77062;BME280;65989;51.686;5.138;2023-01-24T12:29:38;104001.78;;;1.99;81.38
77062;BME280;65989;51.686;5.138;2023-01-24T12:32:15;103999.28;;;1.97;81.31
77062;BME280;65989;51.686;5.138;2023-01-24T12:35:36;104001.78;;;1.99;81.14
77062;BME280;65989;51.686;5.138;2023-01-24T12:38:00;103995.00;;;1.96;81.07
77062;BME280;65989;51.686;5.138;2023-01-24T12:43:17;103986.44;;;2.05;81.12
77062;BME280;65989;51.686;5.138;2023-01-24T12:48:39;103981.22;;;2.05;81.16
77062;BME280;65989;51.686;5.138;2023-01-24T12:54:02;103983.72;;;2.18;81.20
77062;BME280;65989;51.686;5.138;2023-01-24T12:59:32;103976.81;;;2.06;81.12
77062;BME280;65989;51.686;5.138;2023-01-24T13:13:16;103957.31;;;2.10;80.68
77062;BME280;65989;51.686;5.138;2023-01-24T13:29:46;103955.75;;;2.19;80.54
77062;BME280;65989;51.686;5.138;2023-01-24T13:32:17;103951.84;;;2.13;80.41
77062;BME280;65989;51.686;5.138;2023-01-24T13:34:55;103962.31;;;2.13;80.28
77062;BME280;65989;51.686;5.138;2023-01-24T13:37:28;103966.47;;;2.16;80.67
77062;BME280;65989;51.686;5.138;2023-01-24T13:40:06;103962.78;;;2.18;80.27
77062;BME280;65989;51.686;5.138;2023-01-24T13:42:35;103965.66;;;2.15;79.99
77062;BME280;65989;51.686;5.138;2023-01-24T13:47:53;103972.53;;;2.16;80.29
77062;BME280;65989;51.686;5.138;2023-01-24T13:50:20;103968.47;;;2.01;80.13
77062;BME280;65989;51.686;5.138;2023-01-24T13:52:48;103965.63;;;2.04;80.33
77062;BME280;65989;51.686;5.138;2023-01-24T13:57:42;103972.44;;;2.06;80.29
77062;BME280;65989;51.686;5.138;2023-01-24T14:03:03;103968.47;;;2.01;80.60
77062;BME280;65989;51.686;5.138;2023-01-24T14:07:56;103963.84;;;2.04;80.65
77062;BME280;65989;51.686;5.138;2023-01-24T14:12:59;103964.91;;;2.02;80.48
77062;BME280;65989;51.686;5.138;2023-01-24T14:15:37;103953.63;;;2.01;80.68
77062;BME280;65989;51.686;5.138;2023-01-24T14:21:04;103957.06;;;1.90;80.61
77062;BME280;65989;51.686;5.138;2023-01-24T14:23:39;103961.47;;;1.90;80.64
77062;BME280;65989;51.686;5.138;2023-01-24T14:26:05;103954.78;;;1.86;80.48
77062;BME280;65989;51.686;5.138;2023-01-24T14:28:37;103952.91;;;1.88;80.62
77062;BME280;65989;51.686;5.138;2023-01-24T14:31:58;103954.34;;;1.92;80.53
77062;BME280;65989;51.686;5.138;2023-01-24T14:34:39;103958.75;;;1.91;80.60
77062;BME280;65989;51.686;5.138;2023-01-24T14:37:11;103963.50;;;1.86;80.72
77062;BME280;65989;51.686;5.138;2023-01-24T14:39:37;103960.53;;;1.79;80.43
77062;BME280;65989;51.686;5.138;2023-01-24T14:42:05;103958.13;;;1.76;80.70
77062;BME280;65989;51.686;5.138;2023-01-24T14:45:04;103956.56;;;1.74;80.33
77062;BME280;65989;51.686;5.138;2023-01-24T14:47:26;103950.38;;;1.75;80.67
77062;BME280;65989;51.686;5.138;2023-01-24T14:49:57;103949.44;;;1.76;80.88
77062;BME280;65989;51.686;5.138;2023-01-24T14:52:32;103953.63;;;1.78;80.99
77062;BME280;65989;51.686;5.138;2023-01-24T14:57:40;103955.84;;;1.72;80.95
77062;BME280;65989;51.686;5.138;2023-01-24T15:00:14;103959.31;;;1.72;80.80
77062;BME280;65989;51.686;5.138;2023-01-24T15:03:00;103964.78;;;1.69;80.68
77062;BME280;65989;51.686;5.138;2023-01-24T15:05:33;103961.19;;;1.70;80.67